sensor_id;sensor_type;location;lat;lon;timestamp;P1;durP1;ratioP1;P2;durP2;ratioP2
74059;SDS011;62414;53.436;8.828;2022-11-15T00:01:06;46.23;;;18.73;;
74059;SDS011;62414;53.436;8.828;2022-11-15T00:03:50;45.05;;;18.40;;
74059;SDS011;62414;53.436;8.828;2022-11-15T00:06:35;48.25;;;19.52;;
74059;SDS011;62414;53.436;8.828;2022-11-15T00:09:19;49.90;;;19.58;;
74059;SDS011;62414;53.436;8.828;2022-11-15T00:12:04;45.72;;;18.55;;
74059;SDS011;62414;53.436;8.828;2022-11-15T00:14:49;48.43;;;18.60;;
74059;SDS011;62414;53.436;8.828;2022-11-15T00:17:33;47.35;;;18.75;;
74059;SDS011;62414;53.436;8.828;2022-11-15T00:20:17;47.83;;;19.52;;
74059;SDS011;62414;53.436;8.828;2022-11-15T00:23:02;44.88;;;18.90;;
74059;SDS011;62414;53.436;8.828;2022-11-15T00:25:46;45.05;;;18.27;;
74059;SDS011;62414;53.436;8.828;2022-11-15T00:28:32;47.60;;;18.50;;
74059;SDS011;62414;53.436;8.828;2022-11-15T00:31:16;48.75;;;19.23;;
74059;SDS011;62414;53.436;8.828;2022-11-15T00:34:00;45.80;;;18.40;;
74059;SDS011;62414;53.436;8.828;2022-11-15T00:36:44;47.80;;;19.17;;
74059;SDS011;62414;53.436;8.828;2022-11-15T00:39:28;50.95;;;19.38;;
74059;SDS011;62414;53.436;8.828;2022-11-15T00:42:12;47.83;;;18.70;;
74059;SDS011;62414;53.436;8.828;2022-11-15T00:44:57;47.30;;;18.80;;
74059;SDS011;62414;53.436;8.828;2022-11-15T00:47:43;50.47;;;19.17;;
74059;SDS011;62414;53.436;8.828;2022-11-15T00:50:27;46.97;;;19.00;;
74059;SDS011;62414;53.436;8.828;2022-11-15T00:53:11;44.72;;;18.08;;
74059;SDS011;62414;53.436;8.828;2022-11-15T00:55:55;48.37;;;19.43;;
74059;SDS011;62414;53.436;8.828;2022-11-15T00:58:39;52.75;;;19.33;;
74059;SDS011;62414;53.436;8.828;2022-11-15T01:01:24;51.83;;;20.20;;
74059;SDS011;62414;53.436;8.828;2022-11-15T01:04:08;48.28;;;19.10;;
74059;SDS011;62414;53.436;8.828;2022-11-15T01:06:52;49.03;;;20.13;;
74059;SDS011;62414;53.436;8.828;2022-11-15T01:09:37;45.50;;;18.83;;
74059;SDS011;62414;53.436;8.828;2022-11-15T01:12:21;46.33;;;19.08;;
74059;SDS011;62414;53.436;8.828;2022-11-15T01:15:05;53.55;;;20.25;;
74059;SDS011;62414;53.436;8.828;2022-11-15T01:17:51;48.70;;;20.17;;
74059;SDS011;62414;53.436;8.828;2022-11-15T01:20:38;51.45;;;19.08;;
74059;SDS011;62414;53.436;8.828;2022-11-15T01:23:23;47.67;;;19.80;;
74059;SDS011;62414;53.436;8.828;2022-11-15T01:26:07;47.33;;;18.90;;
74059;SDS011;62414;53.436;8.828;2022-11-15T01:28:53;49.40;;;19.55;;
74059;SDS011;62414;53.436;8.828;2022-11-15T01:31:37;49.22;;;19.13;;
74059;SDS011;62414;53.436;8.828;2022-11-15T01:34:22;47.95;;;19.42;;
74059;SDS011;62414;53.436;8.828;2022-11-15T01:37:06;47.27;;;18.97;;
74059;SDS011;62414;53.436;8.828;2022-11-15T01:39:50;48.72;;;18.88;;
74059;SDS011;62414;53.436;8.828;2022-11-15T01:42:34;46.72;;;18.25;;
74059;SDS011;62414;53.436;8.828;2022-11-15T01:45:18;46.17;;;18.50;;
74059;SDS011;62414;53.436;8.828;2022-11-15T01:48:02;45.78;;;18.40;;
74059;SDS011;62414;53.436;8.828;2022-11-15T01:50:48;48.00;;;18.43;;
74059;SDS011;62414;53.436;8.828;2022-11-15T01:53:33;44.58;;;17.98;;
74059;SDS011;62414;53.436;8.828;2022-11-15T01:56:20;48.92;;;18.85;;
74059;SDS011;62414;53.436;8.828;2022-11-15T01:59:06;51.72;;;19.70;;
74059;SDS011;62414;53.436;8.828;2022-11-15T02:01:51;49.17;;;19.20;;
74059;SDS011;62414;53.436;8.828;2022-11-15T02:04:37;46.47;;;18.90;;
74059;SDS011;62414;53.436;8.828;2022-11-15T02:07:25;50.65;;;19.17;;
74059;SDS011;62414;53.436;8.828;2022-11-15T02:10:09;46.55;;;18.60;;
74059;SDS011;62414;53.436;8.828;2022-11-15T02:12:54;46.53;;;18.23;;
74059;SDS011;62414;53.436;8.828;2022-11-15T02:15:41;47.33;;;18.50;;
74059;SDS011;62414;53.436;8.828;2022-11-15T02:18:49;47.37;;;17.93;;
74059;SDS011;62414;53.436;8.828;2022-11-15T02:21:39;48.33;;;18.95;;
74059;SDS011;62414;53.436;8.828;2022-11-15T02:24:38;46.00;;;17.60;;
74059;SDS011;62414;53.436;8.828;2022-11-15T02:31:05;49.25;;;18.38;;
74059;SDS011;62414;53.436;8.828;2022-11-15T02:33:59;47.80;;;18.73;;
74059;SDS011;62414;53.436;8.828;2022-11-15T02:36:50;47.28;;;18.92;;
74059;SDS011;62414;53.436;8.828;2022-11-15T02:39:44;44.78;;;17.45;;
74059;SDS011;62414;53.436;8.828;2022-11-15T02:42:35;49.90;;;19.40;;
74059;SDS011;62414;53.436;8.828;2022-11-15T02:45:24;45.78;;;18.42;;
74059;SDS011;62414;53.436;8.828;2022-11-15T02:48:14;43.50;;;17.23;;
74059;SDS011;62414;53.436;8.828;2022-11-15T02:50:59;45.22;;;17.60;;
74059;SDS011;62414;53.436;8.828;2022-11-15T02:53:44;45.72;;;18.02;;
74059;SDS011;62414;53.436;8.828;2022-11-15T02:56:28;43.25;;;17.35;;
74059;SDS011;62414;53.436;8.828;2022-11-15T02:59:21;46.05;;;18.27;;
74059;SDS011;62414;53.436;8.828;2022-11-15T03:02:19;44.97;;;18.10;;
74059;SDS011;62414;53.436;8.828;2022-11-15T03:05:15;42.00;;;17.80;;
74059;SDS011;62414;53.436;8.828;2022-11-15T03:08:06;45.50;;;17.90;;
74059;SDS011;62414;53.436;8.828;2022-11-15T03:10:56;45.17;;;17.65;;
74059;SDS011;62414;53.436;8.828;2022-11-15T03:13:47;45.20;;;17.85;;
74059;SDS011;62414;53.436;8.828;2022-11-15T03:16:37;45.57;;;18.43;;
74059;SDS011;62414;53.436;8.828;2022-11-15T03:19:26;42.75;;;17.55;;
74059;SDS011;62414;53.436;8.828;2022-11-15T03:22:18;40.13;;;16.90;;
74059;SDS011;62414;53.436;8.828;2022-11-15T03:25:06;40.75;;;16.45;;
74059;SDS011;62414;53.436;8.828;2022-11-15T03:27:54;42.63;;;17.00;;
74059;SDS011;62414;53.436;8.828;2022-11-15T03:30:41;42.67;;;16.97;;
74059;SDS011;62414;53.436;8.828;2022-11-15T03:33:27;40.88;;;16.60;;
74059;SDS011;62414;53.436;8.828;2022-11-15T03:36:13;38.70;;;16.50;;
74059;SDS011;62414;53.436;8.828;2022-11-15T03:39:00;42.58;;;16.90;;
74059;SDS011;62414;53.436;8.828;2022-11-15T03:41:49;41.97;;;16.10;;
74059;SDS011;62414;53.436;8.828;2022-11-15T03:44:42;41.43;;;16.70;;
74059;SDS011;62414;53.436;8.828;2022-11-15T03:47:32;38.97;;;15.88;;
74059;SDS011;62414;53.436;8.828;2022-11-15T03:50:20;42.08;;;16.48;;
74059;SDS011;62414;53.436;8.828;2022-11-15T03:53:07;38.08;;;15.23;;
74059;SDS011;62414;53.436;8.828;2022-11-15T03:55:53;38.35;;;15.73;;
74059;SDS011;62414;53.436;8.828;2022-11-15T03:58:37;38.40;;;16.00;;
74059;SDS011;62414;53.436;8.828;2022-11-15T04:01:21;40.38;;;16.17;;
74059;SDS011;62414;53.436;8.828;2022-11-15T04:04:04;41.30;;;16.02;;
74059;SDS011;62414;53.436;8.828;2022-11-15T04:06:48;39.15;;;16.60;;
74059;SDS011;62414;53.436;8.828;2022-11-15T04:09:33;39.25;;;16.48;;
74059;SDS011;62414;53.436;8.828;2022-11-15T04:12:18;45.50;;;17.27;;
74059;SDS011;62414;53.436;8.828;2022-11-15T04:15:03;42.10;;;16.90;;
74059;SDS011;62414;53.436;8.828;2022-11-15T04:17:49;45.83;;;17.55;;
74059;SDS011;62414;53.436;8.828;2022-11-15T04:20:34;44.63;;;17.30;;
74059;SDS011;62414;53.436;8.828;2022-11-15T04:23:19;43.22;;;17.38;;
74059;SDS011;62414;53.436;8.828;2022-11-15T04:26:05;45.97;;;17.33;;
74059;SDS011;62414;53.436;8.828;2022-11-15T04:28:51;49.28;;;18.65;;
74059;SDS011;62414;53.436;8.828;2022-11-15T04:31:35;46.13;;;18.10;;
74059;SDS011;62414;53.436;8.828;2022-11-15T04:34:19;45.22;;;17.65;;
74059;SDS011;62414;53.436;8.828;2022-11-15T04:37:03;43.78;;;17.40;;
74059;SDS011;62414;53.436;8.828;2022-11-15T04:39:47;49.07;;;18.30;;
74059;SDS011;62414;53.436;8.828;2022-11-15T04:42:31;48.42;;;18.20;;
74059;SDS011;62414;53.436;8.828;2022-11-15T04:45:16;50.17;;;18.52;;
74059;SDS011;62414;53.436;8.828;2022-11-15T04:48:00;49.00;;;17.85;;
74059;SDS011;62414;53.436;8.828;2022-11-15T04:50:44;47.55;;;18.13;;
74059;SDS011;62414;53.436;8.828;2022-11-15T04:53:30;47.57;;;17.67;;
74059;SDS011;62414;53.436;8.828;2022-11-15T04:56:14;48.63;;;18.05;;
74059;SDS011;62414;53.436;8.828;2022-11-15T04:58:58;50.42;;;18.98;;
74059;SDS011;62414;53.436;8.828;2022-11-15T05:01:43;50.67;;;19.13;;
74059;SDS011;62414;53.436;8.828;2022-11-15T05:04:27;49.72;;;19.33;;
74059;SDS011;62414;53.436;8.828;2022-11-15T05:07:11;50.70;;;18.77;;
74059;SDS011;62414;53.436;8.828;2022-11-15T05:09:55;52.58;;;19.42;;
74059;SDS011;62414;53.436;8.828;2022-11-15T05:12:39;48.35;;;19.60;;
74059;SDS011;62414;53.436;8.828;2022-11-15T05:15:23;43.47;;;17.58;;
74059;SDS011;62414;53.436;8.828;2022-11-15T05:18:08;44.53;;;17.40;;
74059;SDS011;62414;53.436;8.828;2022-11-15T05:20:53;42.23;;;17.00;;
74059;SDS011;62414;53.436;8.828;2022-11-15T05:23:37;41.92;;;16.48;;
74059;SDS011;62414;53.436;8.828;2022-11-15T05:26:20;42.83;;;16.85;;
74059;SDS011;62414;53.436;8.828;2022-11-15T05:29:04;41.17;;;16.63;;
74059;SDS011;62414;53.436;8.828;2022-11-15T05:31:48;41.60;;;16.30;;
74059;SDS011;62414;53.436;8.828;2022-11-15T05:34:34;36.43;;;15.73;;
74059;SDS011;62414;53.436;8.828;2022-11-15T05:37:18;39.15;;;15.65;;
74059;SDS011;62414;53.436;8.828;2022-11-15T05:40:02;38.67;;;15.65;;
74059;SDS011;62414;53.436;8.828;2022-11-15T05:42:47;35.63;;;15.07;;
74059;SDS011;62414;53.436;8.828;2022-11-15T05:45:31;31.42;;;13.95;;
74059;SDS011;62414;53.436;8.828;2022-11-15T05:48:18;33.17;;;14.30;;
74059;SDS011;62414;53.436;8.828;2022-11-15T05:51:04;36.03;;;14.77;;
74059;SDS011;62414;53.436;8.828;2022-11-15T05:53:50;34.30;;;14.77;;
74059;SDS011;62414;53.436;8.828;2022-11-15T05:56:36;31.58;;;14.23;;
74059;SDS011;62414;53.436;8.828;2022-11-15T05:59:20;31.50;;;13.32;;
74059;SDS011;62414;53.436;8.828;2022-11-15T06:02:04;33.73;;;14.93;;
74059;SDS011;62414;53.436;8.828;2022-11-15T06:04:48;32.22;;;13.68;;
74059;SDS011;62414;53.436;8.828;2022-11-15T06:07:33;31.50;;;13.65;;
74059;SDS011;62414;53.436;8.828;2022-11-15T06:10:17;30.20;;;13.63;;
74059;SDS011;62414;53.436;8.828;2022-11-15T06:13:02;30.98;;;14.20;;
74059;SDS011;62414;53.436;8.828;2022-11-15T06:15:47;30.00;;;13.57;;
74059;SDS011;62414;53.436;8.828;2022-11-15T06:18:31;27.60;;;12.93;;
74059;SDS011;62414;53.436;8.828;2022-11-15T06:21:16;28.95;;;13.82;;
74059;SDS011;62414;53.436;8.828;2022-11-15T06:24:01;30.02;;;13.57;;
74059;SDS011;62414;53.436;8.828;2022-11-15T06:26:45;30.75;;;13.43;;
74059;SDS011;62414;53.436;8.828;2022-11-15T06:29:29;30.53;;;14.00;;
74059;SDS011;62414;53.436;8.828;2022-11-15T06:32:13;29.88;;;13.00;;
74059;SDS011;62414;53.436;8.828;2022-11-15T06:34:57;30.30;;;13.07;;
74059;SDS011;62414;53.436;8.828;2022-11-15T06:37:41;29.95;;;12.70;;
74059;SDS011;62414;53.436;8.828;2022-11-15T06:40:27;28.02;;;13.15;;
74059;SDS011;62414;53.436;8.828;2022-11-15T06:43:11;33.17;;;13.57;;
74059;SDS011;62414;53.436;8.828;2022-11-15T06:45:55;31.40;;;13.40;;
74059;SDS011;62414;53.436;8.828;2022-11-15T06:48:39;32.80;;;13.38;;
74059;SDS011;62414;53.436;8.828;2022-11-15T06:51:23;28.77;;;12.90;;
74059;SDS011;62414;53.436;8.828;2022-11-15T06:54:07;30.58;;;12.93;;
74059;SDS011;62414;53.436;8.828;2022-11-15T06:56:52;32.07;;;13.80;;
74059;SDS011;62414;53.436;8.828;2022-11-15T06:59:36;29.17;;;12.82;;
74059;SDS011;62414;53.436;8.828;2022-11-15T07:02:21;30.50;;;14.02;;
74059;SDS011;62414;53.436;8.828;2022-11-15T07:05:05;27.67;;;12.80;;
74059;SDS011;62414;53.436;8.828;2022-11-15T07:07:53;31.65;;;13.70;;
74059;SDS011;62414;53.436;8.828;2022-11-15T07:10:38;32.30;;;13.87;;
74059;SDS011;62414;53.436;8.828;2022-11-15T07:13:25;30.92;;;13.52;;
74059;SDS011;62414;53.436;8.828;2022-11-15T07:16:09;26.15;;;12.95;;
74059;SDS011;62414;53.436;8.828;2022-11-15T07:18:53;31.55;;;14.88;;
74059;SDS011;62414;53.436;8.828;2022-11-15T07:21:37;32.00;;;14.00;;
74059;SDS011;62414;53.436;8.828;2022-11-15T07:24:21;28.97;;;14.10;;
74059;SDS011;62414;53.436;8.828;2022-11-15T07:27:05;28.23;;;14.00;;
74059;SDS011;62414;53.436;8.828;2022-11-15T07:29:50;29.20;;;14.65;;
74059;SDS011;62414;53.436;8.828;2022-11-15T07:32:34;26.77;;;14.27;;
74059;SDS011;62414;53.436;8.828;2022-11-15T07:35:18;30.02;;;15.02;;
74059;SDS011;62414;53.436;8.828;2022-11-15T07:38:02;28.80;;;13.90;;
74059;SDS011;62414;53.436;8.828;2022-11-15T07:40:47;30.15;;;14.35;;
74059;SDS011;62414;53.436;8.828;2022-11-15T07:43:30;31.52;;;13.60;;
74059;SDS011;62414;53.436;8.828;2022-11-15T07:46:16;31.13;;;14.25;;
74059;SDS011;62414;53.436;8.828;2022-11-15T07:49:00;31.35;;;13.85;;
74059;SDS011;62414;53.436;8.828;2022-11-15T07:51:44;25.87;;;13.63;;
74059;SDS011;62414;53.436;8.828;2022-11-15T07:54:28;29.17;;;14.32;;
74059;SDS011;62414;53.436;8.828;2022-11-15T07:57:12;31.10;;;13.35;;
74059;SDS011;62414;53.436;8.828;2022-11-15T07:59:55;26.48;;;13.48;;
74059;SDS011;62414;53.436;8.828;2022-11-15T08:02:41;28.67;;;13.25;;
74059;SDS011;62414;53.436;8.828;2022-11-15T08:05:25;27.50;;;13.50;;
74059;SDS011;62414;53.436;8.828;2022-11-15T08:08:09;25.40;;;13.20;;
74059;SDS011;62414;53.436;8.828;2022-11-15T08:10:54;33.13;;;16.20;;
74059;SDS011;62414;53.436;8.828;2022-11-15T08:13:40;27.48;;;14.40;;
74059;SDS011;62414;53.436;8.828;2022-11-15T08:16:24;26.15;;;14.02;;
74059;SDS011;62414;53.436;8.828;2022-11-15T08:19:10;26.17;;;13.33;;
74059;SDS011;62414;53.436;8.828;2022-11-15T08:21:53;26.55;;;12.13;;
74059;SDS011;62414;53.436;8.828;2022-11-15T08:24:37;23.50;;;12.48;;
74059;SDS011;62414;53.436;8.828;2022-11-15T08:27:21;23.65;;;12.65;;
74059;SDS011;62414;53.436;8.828;2022-11-15T08:30:06;22.33;;;12.20;;
74059;SDS011;62414;53.436;8.828;2022-11-15T08:32:51;23.50;;;12.33;;
74059;SDS011;62414;53.436;8.828;2022-11-15T08:35:37;22.88;;;11.90;;
74059;SDS011;62414;53.436;8.828;2022-11-15T08:38:22;23.17;;;11.75;;
74059;SDS011;62414;53.436;8.828;2022-11-15T08:41:06;23.75;;;11.75;;
74059;SDS011;62414;53.436;8.828;2022-11-15T08:43:50;23.42;;;11.85;;
74059;SDS011;62414;53.436;8.828;2022-11-15T08:46:34;23.37;;;11.37;;
74059;SDS011;62414;53.436;8.828;2022-11-15T08:49:18;21.13;;;11.70;;
74059;SDS011;62414;53.436;8.828;2022-11-15T08:52:03;24.20;;;12.50;;
74059;SDS011;62414;53.436;8.828;2022-11-15T08:54:47;23.58;;;12.00;;
74059;SDS011;62414;53.436;8.828;2022-11-15T08:57:31;23.85;;;12.60;;
74059;SDS011;62414;53.436;8.828;2022-11-15T09:00:15;21.83;;;11.43;;
74059;SDS011;62414;53.436;8.828;2022-11-15T09:03:03;24.30;;;12.13;;
74059;SDS011;62414;53.436;8.828;2022-11-15T09:05:47;23.77;;;12.07;;
74059;SDS011;62414;53.436;8.828;2022-11-15T09:08:32;21.60;;;11.18;;
74059;SDS011;62414;53.436;8.828;2022-11-15T09:11:16;22.58;;;11.73;;
74059;SDS011;62414;53.436;8.828;2022-11-15T09:14:00;20.57;;;10.67;;
74059;SDS011;62414;53.436;8.828;2022-11-15T09:16:44;24.50;;;11.63;;
74059;SDS011;62414;53.436;8.828;2022-11-15T09:19:28;22.85;;;11.85;;
74059;SDS011;62414;53.436;8.828;2022-11-15T09:22:12;21.08;;;10.90;;
74059;SDS011;62414;53.436;8.828;2022-11-15T09:24:57;22.70;;;10.85;;
74059;SDS011;62414;53.436;8.828;2022-11-15T09:27:42;20.93;;;10.90;;
74059;SDS011;62414;53.436;8.828;2022-11-15T09:30:26;22.75;;;11.00;;
74059;SDS011;62414;53.436;8.828;2022-11-15T09:33:10;22.60;;;10.60;;
74059;SDS011;62414;53.436;8.828;2022-11-15T09:35:59;21.05;;;11.20;;
74059;SDS011;62414;53.436;8.828;2022-11-15T09:38:43;21.52;;;10.60;;
74059;SDS011;62414;53.436;8.828;2022-11-15T09:44:41;18.40;;;9.93;;
74059;SDS011;62414;53.436;8.828;2022-11-15T09:47:43;20.02;;;10.23;;
74059;SDS011;62414;53.436;8.828;2022-11-15T09:50:49;17.83;;;10.20;;
74059;SDS011;62414;53.436;8.828;2022-11-15T09:53:17;21.70;;;10.30;;
74059;SDS011;62414;53.436;8.828;2022-11-15T09:55:51;18.87;;;9.57;;
74059;SDS011;62414;53.436;8.828;2022-11-15T09:58:26;18.10;;;9.73;;
74059;SDS011;62414;53.436;8.828;2022-11-15T10:01:02;17.55;;;9.63;;
74059;SDS011;62414;53.436;8.828;2022-11-15T10:03:33;19.98;;;9.30;;
74059;SDS011;62414;53.436;8.828;2022-11-15T10:06:00;17.33;;;9.52;;
74059;SDS011;62414;53.436;8.828;2022-11-15T10:08:31;22.07;;;9.67;;
74059;SDS011;62414;53.436;8.828;2022-11-15T10:11:06;21.23;;;9.43;;
74059;SDS011;62414;53.436;8.828;2022-11-15T10:13:36;15.32;;;8.63;;
74059;SDS011;62414;53.436;8.828;2022-11-15T10:16:08;17.00;;;9.10;;
74059;SDS011;62414;53.436;8.828;2022-11-15T10:18:47;15.30;;;8.50;;
74059;SDS011;62414;53.436;8.828;2022-11-15T10:21:21;18.87;;;9.10;;
74059;SDS011;62414;53.436;8.828;2022-11-15T10:23:50;16.30;;;8.63;;
74059;SDS011;62414;53.436;8.828;2022-11-15T10:26:16;15.77;;;8.65;;
74059;SDS011;62414;53.436;8.828;2022-11-15T10:28:43;15.15;;;8.15;;
74059;SDS011;62414;53.436;8.828;2022-11-15T10:31:20;15.20;;;8.10;;
74059;SDS011;62414;53.436;8.828;2022-11-15T10:33:47;16.63;;;8.27;;
74059;SDS011;62414;53.436;8.828;2022-11-15T10:36:17;16.30;;;7.93;;
74059;SDS011;62414;53.436;8.828;2022-11-15T10:38:50;15.20;;;8.18;;
74059;SDS011;62414;53.436;8.828;2022-11-15T10:41:19;14.43;;;8.00;;
74059;SDS011;62414;53.436;8.828;2022-11-15T10:44:00;15.17;;;8.07;;
74059;SDS011;62414;53.436;8.828;2022-11-15T10:46:27;14.48;;;7.78;;
74059;SDS011;62414;53.436;8.828;2022-11-15T10:48:53;15.33;;;8.10;;
74059;SDS011;62414;53.436;8.828;2022-11-15T10:51:19;13.13;;;7.55;;
74059;SDS011;62414;53.436;8.828;2022-11-15T10:53:46;17.58;;;7.85;;
74059;SDS011;62414;53.436;8.828;2022-11-15T10:56:12;12.53;;;7.73;;
74059;SDS011;62414;53.436;8.828;2022-11-15T10:58:41;14.40;;;7.80;;
74059;SDS011;62414;53.436;8.828;2022-11-15T11:01:10;15.65;;;7.70;;
74059;SDS011;62414;53.436;8.828;2022-11-15T11:03:37;14.02;;;7.45;;
74059;SDS011;62414;53.436;8.828;2022-11-15T11:06:05;13.87;;;7.40;;
74059;SDS011;62414;53.436;8.828;2022-11-15T11:08:32;14.52;;;7.60;;
74059;SDS011;62414;53.436;8.828;2022-11-15T11:10:58;14.00;;;7.17;;
74059;SDS011;62414;53.436;8.828;2022-11-15T11:13:25;13.02;;;7.10;;
74059;SDS011;62414;53.436;8.828;2022-11-15T11:15:52;12.02;;;6.25;;
74059;SDS011;62414;53.436;8.828;2022-11-15T11:18:25;11.90;;;6.50;;
74059;SDS011;62414;53.436;8.828;2022-11-15T11:20:54;13.18;;;6.72;;
74059;SDS011;62414;53.436;8.828;2022-11-15T11:23:29;11.40;;;6.30;;
74059;SDS011;62414;53.436;8.828;2022-11-15T11:26:11;11.35;;;6.28;;
74059;SDS011;62414;53.436;8.828;2022-11-15T11:28:53;13.50;;;6.28;;
74059;SDS011;62414;53.436;8.828;2022-11-15T11:31:26;11.45;;;6.13;;
74059;SDS011;62414;53.436;8.828;2022-11-15T11:34:11;11.88;;;6.13;;
74059;SDS011;62414;53.436;8.828;2022-11-15T11:36:42;12.17;;;6.40;;
74059;SDS011;62414;53.436;8.828;2022-11-15T11:39:21;10.05;;;5.45;;
74059;SDS011;62414;53.436;8.828;2022-11-15T11:41:56;12.07;;;5.88;;
74059;SDS011;62414;53.436;8.828;2022-11-15T11:44:30;11.20;;;5.70;;
74059;SDS011;62414;53.436;8.828;2022-11-15T11:46:59;11.15;;;5.50;;
74059;SDS011;62414;53.436;8.828;2022-11-15T11:49:29;11.13;;;5.53;;
74059;SDS011;62414;53.436;8.828;2022-11-15T11:52:01;10.32;;;5.55;;
74059;SDS011;62414;53.436;8.828;2022-11-15T11:54:32;10.23;;;5.20;;
74059;SDS011;62414;53.436;8.828;2022-11-15T11:57:04;10.15;;;5.18;;
74059;SDS011;62414;53.436;8.828;2022-11-15T11:59:37;9.35;;;5.10;;
74059;SDS011;62414;53.436;8.828;2022-11-15T12:02:11;9.03;;;5.00;;
74059;SDS011;62414;53.436;8.828;2022-11-15T12:04:42;8.18;;;4.97;;
74059;SDS011;62414;53.436;8.828;2022-11-15T12:07:13;9.32;;;5.15;;
74059;SDS011;62414;53.436;8.828;2022-11-15T12:09:44;8.90;;;5.10;;
74059;SDS011;62414;53.436;8.828;2022-11-15T12:12:15;9.52;;;5.10;;
74059;SDS011;62414;53.436;8.828;2022-11-15T12:14:46;9.53;;;5.00;;
74059;SDS011;62414;53.436;8.828;2022-11-15T12:17:16;8.57;;;4.72;;
74059;SDS011;62414;53.436;8.828;2022-11-15T12:19:47;11.27;;;5.43;;
74059;SDS011;62414;53.436;8.828;2022-11-15T12:22:13;9.88;;;5.30;;
74059;SDS011;62414;53.436;8.828;2022-11-15T12:24:45;9.55;;;5.03;;
74059;SDS011;62414;53.436;8.828;2022-11-15T12:27:17;10.03;;;5.57;;
74059;SDS011;62414;53.436;8.828;2022-11-15T12:29:46;9.02;;;4.70;;
74059;SDS011;62414;53.436;8.828;2022-11-15T12:32:17;10.35;;;5.57;;
74059;SDS011;62414;53.436;8.828;2022-11-15T12:34:53;10.30;;;5.50;;
74059;SDS011;62414;53.436;8.828;2022-11-15T12:37:32;10.25;;;5.38;;
74059;SDS011;62414;53.436;8.828;2022-11-15T12:40:19;9.27;;;5.20;;
74059;SDS011;62414;53.436;8.828;2022-11-15T12:46:03;10.10;;;5.07;;
74059;SDS011;62414;53.436;8.828;2022-11-15T12:57:34;10.65;;;5.40;;
74059;SDS011;62414;53.436;8.828;2022-11-15T13:00:04;10.05;;;5.50;;
74059;SDS011;62414;53.436;8.828;2022-11-15T13:02:45;9.43;;;5.20;;
74059;SDS011;62414;53.436;8.828;2022-11-15T13:05:49;9.80;;;5.40;;
74059;SDS011;62414;53.436;8.828;2022-11-15T13:08:34;8.88;;;5.00;;
74059;SDS011;62414;53.436;8.828;2022-11-15T13:14:01;8.27;;;4.50;;
74059;SDS011;62414;53.436;8.828;2022-11-15T13:17:30;8.97;;;4.60;;
74059;SDS011;62414;53.436;8.828;2022-11-15T13:19:59;8.25;;;4.68;;
74059;SDS011;62414;53.436;8.828;2022-11-15T13:22:27;9.18;;;4.50;;
74059;SDS011;62414;53.436;8.828;2022-11-15T13:24:53;8.23;;;5.05;;
74059;SDS011;62414;53.436;8.828;2022-11-15T13:27:19;9.10;;;4.70;;
74059;SDS011;62414;53.436;8.828;2022-11-15T13:29:46;9.57;;;4.63;;
74059;SDS011;62414;53.436;8.828;2022-11-15T13:32:12;7.82;;;4.72;;
74059;SDS011;62414;53.436;8.828;2022-11-15T13:34:39;8.23;;;4.47;;
74059;SDS011;62414;53.436;8.828;2022-11-15T13:37:09;8.75;;;5.07;;
74059;SDS011;62414;53.436;8.828;2022-11-15T13:39:52;8.15;;;4.70;;
74059;SDS011;62414;53.436;8.828;2022-11-15T13:42:18;9.30;;;4.60;;
74059;SDS011;62414;53.436;8.828;2022-11-15T13:44:55;8.38;;;4.43;;
74059;SDS011;62414;53.436;8.828;2022-11-15T13:47:22;7.23;;;4.00;;
74059;SDS011;62414;53.436;8.828;2022-11-15T13:49:50;7.20;;;4.03;;
74059;SDS011;62414;53.436;8.828;2022-11-15T13:52:16;7.53;;;4.03;;
74059;SDS011;62414;53.436;8.828;2022-11-15T13:54:42;6.90;;;3.90;;
74059;SDS011;62414;53.436;8.828;2022-11-15T13:57:10;7.55;;;4.07;;
74059;SDS011;62414;53.436;8.828;2022-11-15T13:59:44;6.75;;;3.80;;
74059;SDS011;62414;53.436;8.828;2022-11-15T14:02:14;7.20;;;3.90;;
74059;SDS011;62414;53.436;8.828;2022-11-15T14:04:45;7.72;;;3.90;;
74059;SDS011;62414;53.436;8.828;2022-11-15T14:07:15;8.15;;;3.95;;
74059;SDS011;62414;53.436;8.828;2022-11-15T14:09:42;7.90;;;4.00;;
74059;SDS011;62414;53.436;8.828;2022-11-15T14:12:24;8.17;;;4.10;;
74059;SDS011;62414;53.436;8.828;2022-11-15T14:14:54;8.57;;;3.70;;
74059;SDS011;62414;53.436;8.828;2022-11-15T14:17:33;6.88;;;3.55;;
74059;SDS011;62414;53.436;8.828;2022-11-15T14:20:01;6.65;;;3.53;;
74059;SDS011;62414;53.436;8.828;2022-11-15T14:22:50;7.30;;;3.77;;
74059;SDS011;62414;53.436;8.828;2022-11-15T14:25:17;9.57;;;3.95;;
74059;SDS011;62414;53.436;8.828;2022-11-15T14:27:44;7.53;;;3.80;;
74059;SDS011;62414;53.436;8.828;2022-11-15T14:30:38;8.23;;;4.10;;
74059;SDS011;62414;53.436;8.828;2022-11-15T14:33:14;7.30;;;3.57;;
74059;SDS011;62414;53.436;8.828;2022-11-15T14:35:44;8.00;;;4.00;;
74059;SDS011;62414;53.436;8.828;2022-11-15T14:38:10;6.45;;;3.75;;
74059;SDS011;62414;53.436;8.828;2022-11-15T14:40:35;8.60;;;5.00;;
74059;SDS011;62414;53.436;8.828;2022-11-15T14:43:01;8.87;;;5.10;;
74059;SDS011;62414;53.436;8.828;2022-11-15T14:45:26;9.97;;;4.77;;
74059;SDS011;62414;53.436;8.828;2022-11-15T14:47:52;7.68;;;4.20;;
74059;SDS011;62414;53.436;8.828;2022-11-15T14:50:19;9.27;;;4.40;;
74059;SDS011;62414;53.436;8.828;2022-11-15T14:52:46;8.32;;;4.20;;
74059;SDS011;62414;53.436;8.828;2022-11-15T14:55:14;9.70;;;4.38;;
74059;SDS011;62414;53.436;8.828;2022-11-15T14:57:42;8.68;;;4.50;;
74059;SDS011;62414;53.436;8.828;2022-11-15T15:00:08;8.30;;;4.30;;
74059;SDS011;62414;53.436;8.828;2022-11-15T15:02:38;9.70;;;4.97;;
74059;SDS011;62414;53.436;8.828;2022-11-15T15:05:10;8.73;;;4.80;;
74059;SDS011;62414;53.436;8.828;2022-11-15T15:07:42;11.38;;;4.63;;
74059;SDS011;62414;53.436;8.828;2022-11-15T15:10:08;9.13;;;4.57;;
74059;SDS011;62414;53.436;8.828;2022-11-15T15:12:34;10.40;;;5.10;;
74059;SDS011;62414;53.436;8.828;2022-11-15T15:14:59;10.37;;;5.07;;
74059;SDS011;62414;53.436;8.828;2022-11-15T15:17:25;11.00;;;5.23;;
74059;SDS011;62414;53.436;8.828;2022-11-15T15:19:50;10.60;;;4.90;;
74059;SDS011;62414;53.436;8.828;2022-11-15T15:22:16;10.67;;;5.43;;
74059;SDS011;62414;53.436;8.828;2022-11-15T15:24:45;12.00;;;5.47;;
74059;SDS011;62414;53.436;8.828;2022-11-15T15:27:11;10.43;;;5.20;;
74059;SDS011;62414;53.436;8.828;2022-11-15T15:29:37;10.57;;;5.30;;
74059;SDS011;62414;53.436;8.828;2022-11-15T15:32:03;10.35;;;5.10;;
74059;SDS011;62414;53.436;8.828;2022-11-15T15:34:29;9.88;;;4.97;;
74059;SDS011;62414;53.436;8.828;2022-11-15T15:37:06;11.40;;;5.10;;
74059;SDS011;62414;53.436;8.828;2022-11-15T15:39:32;9.38;;;5.05;;
74059;SDS011;62414;53.436;8.828;2022-11-15T15:41:59;9.40;;;5.17;;
74059;SDS011;62414;53.436;8.828;2022-11-15T15:44:25;10.98;;;5.13;;
74059;SDS011;62414;53.436;8.828;2022-11-15T15:46:50;10.23;;;4.87;;
74059;SDS011;62414;53.436;8.828;2022-11-15T15:49:15;11.87;;;4.80;;
74059;SDS011;62414;53.436;8.828;2022-11-15T15:51:41;10.97;;;5.00;;
74059;SDS011;62414;53.436;8.828;2022-11-15T15:54:06;10.73;;;5.20;;
74059;SDS011;62414;53.436;8.828;2022-11-15T15:56:32;11.67;;;5.27;;
74059;SDS011;62414;53.436;8.828;2022-11-15T15:58:58;9.93;;;4.97;;
74059;SDS011;62414;53.436;8.828;2022-11-15T16:01:24;11.07;;;5.00;;
74059;SDS011;62414;53.436;8.828;2022-11-15T16:03:49;10.47;;;4.73;;